• Join FlightAware (Why Join?)
  • Login
  • US Flag 
05:40AM EDT


 

Airport Tracker/Info


-or-


 

Live Flight TrackerFlight Track Log ✈ N569SC ✈ 01-May-2013 ✈ KJVL - KCLT

Flight Track Log - Related Links

Times and Time Zones

All times are in EDT time to prevent confusion due to time zone crossing. See the N569SC flight status page for this flight to view local times or setup timezone preferences in your user account.

Time Position Orientation Groundspeed Altitude Reporting Facility
EDT Latitude Longitude Course Direction KTS MPH feet Rate Location/Type
12:13PM 42.4761 -89.0417 171° South 250 288 7,900  Level Chicago Center
12:14PM 42.4208 -88.9664 135° Southeast 282 325 11,100 3,180 Climbing Chicago Center
12:15PM 42.3658 -88.8956 136° Southeast 275 316 14,500 2,940 Climbing Chicago Center
12:16PM 42.3050 -88.8142 135° Southeast 299 344 17,200 2,640 Climbing Chicago Center
12:17PM 42.1791 -88.4885 137° Southeast  Level Estimated
12:17PM 42.2419 -88.7286 135° Southeast 322 371 20,000  Level Chicago Center
12:18PM 42.1764 -88.6425 136° Southeast 329 379 22,400 2,220 Climbing Chicago Center
12:19PM 42.1064 -88.5492 135° Southeast 351 404 24,700 1,200 Climbing Chicago Center
12:20PM 42.0181 -88.4336 136° Southeast 370 426 25,000 840 Climbing Chicago Center
12:21PM 41.9453 -88.3383 136° Southeast 366 421 26,500 1,740 Climbing Chicago Center
12:22PM 41.8711 -88.2406 136° Southeast 373 429 28,600 1,980 Climbing Chicago Center
12:23PM 41.7947 -88.1406 136° Southeast 383 441 30,700 1,920 Climbing Chicago Center
12:24PM 41.7156 -88.0372 136° Southeast 394 453 32,600 1,740 Climbing Chicago Center
12:25PM 41.6339 -87.9314 136° Southeast 405 466 34,400 1,980 Climbing Chicago Center
12:27PM 41.4886 -87.7433 136° Southeast 398 458 38,200 2,160 Climbing Indianapolis Center
12:27PM 41.4578 -87.7036 136° Southeast 394 453 38,900 1,800 Climbing Chicago Center
12:28PM 41.3792 -87.6033 136° Southeast 391 450 40,700 1,740 Climbing Chicago Center
12:29PM 41.3042 -87.5069 136° Southeast 380 437 42,500 1,200 Climbing Chicago Center
12:30PM 41.2283 -87.4114 137° Southeast 376 433 43,300 720 Climbing Chicago Center
12:31PM 41.1497 -87.3131 137° Southeast 387 445 44,100 720 Climbing Chicago Center
12:32PM 41.0706 -87.2139 137° Southeast 392 451 44,800 420 Climbing Chicago Center
12:33PM 40.9767 -87.0939 136° Southeast 394 453 45,000 60 Climbing Chicago Center
12:34PM 40.8931 -86.9906 137° Southeast 409 471 45,000 120 Level Chicago Center
12:35PM 40.8086 -86.8864 137° Southeast 417 480 45,300 420 Climbing Chicago Center
12:36PM 40.7242 -86.7794 136° Southeast 422 486 45,900 540 Climbing Chicago Center
12:37PM 40.6406 -86.6758 137° Southeast 416 479 46,500 480 Climbing Chicago Center
12:38PM 40.5422 -86.5556 137° Southeast 412 474 47,000 240 Climbing Chicago Center
12:40PM 40.4581 -86.4508 137° Southeast 415 478 47,000  Level Chicago Center
12:41PM 40.3714 -86.3458 137° Southeast 419 482 47,000  Level Chicago Center
12:42PM 40.2839 -86.2381 137° Southeast 426 490 47,000  Level Chicago Center
12:43PM 40.1967 -86.1303 137° Southeast 426 490 47,000  Level Chicago Center
12:44PM 40.1075 -86.0225 137° Southeast 429 494 47,000  Level Chicago Center
12:44PM 40.0475 -85.9506 137° Southeast 429 494 47,000  Level Indianapolis Center
12:45PM 39.9592 -85.8439 137° Southeast 428 493 47,000  Level Indianapolis Center
12:46PM 39.8708 -85.7383 137° Southeast 426 490 47,000  Level Indianapolis Center
12:47PM 39.7675 -85.6156 138° Southeast 426 490 47,000  Level Indianapolis Center
12:48PM 39.6800 -85.5111 137° Southeast 424 488 47,000  Level Indianapolis Center
12:49PM 39.5869 -85.4117 141° Southeast 426 490 47,000  Level Indianapolis Center
12:51PM 39.4964 -85.3111 139° Southeast 427 491 47,000  Level Indianapolis Center
12:52PM 39.4058 -85.2125 140° Southeast 424 488 47,000  Level Indianapolis Center
12:53PM 39.3147 -85.1117 139° Southeast 426 490 47,000  Level Indianapolis Center
12:54PM 39.2225 -85.0117 140° Southeast 429 494 47,000  Level Indianapolis Center
12:55PM 39.1328 -84.9128 139° Southeast 424 488 47,000  Level Indianapolis Center
12:56PM 39.0283 -84.8017 140° Southeast 426 490 47,000  Level Indianapolis Center
12:57PM 38.9358 -84.7008 140° Southeast 429 494 47,000  Level Indianapolis Center
12:58PM 38.8408 -84.5997 140° Southeast 428 493 47,000  Level Indianapolis Center
12:59PM 38.7519 -84.5042 140° Southeast 429 494 47,000  Level Indianapolis Center
01:00PM 38.6586 -84.4061 141° Southeast 430 495 47,000  Level Indianapolis Center
01:01PM 38.5522 -84.2869 139° Southeast 429 494 47,000 -240 Level Indianapolis Center
01:02PM 38.4606 -84.1881 140° Southeast 429 494 46,600 -1,140 Descending Indianapolis Center
01:03PM 38.3656 -84.0928 142° Southeast 431 496 44,700 -1,800 Descending Indianapolis Center
01:04PM 38.2736 -83.9939 140° Southeast 433 498 43,000 -1,560 Descending Indianapolis Center
01:05PM 38.1819 -83.9003 141° Southeast 426 490 41,500 -1,500 Descending Indianapolis Center
01:06PM 38.0911 -83.8056 141° Southeast 420 483 40,000 -1,560 Descending Indianapolis Center
01:07PM 37.9864 -83.6961 141° Southeast 416 479 38,300 -1,560 Descending Indianapolis Center
01:08PM 37.8961 -83.6050 141° Southeast 413 475 36,800 -1,440 Descending Indianapolis Center
01:09PM 37.8086 -83.5117 140° Southeast 411 473 35,400 -1,620 Descending Indianapolis Center
01:10PM 37.7203 -83.4208 141° Southeast 408 470 33,500 -1,200 Descending Indianapolis Center
01:11PM 37.6314 -83.3306 141° Southeast 410 472 33,000 -300 Descending Indianapolis Center
01:12PM 37.5456 -83.2414 141° Southeast 400 460 33,000 -540 Level Indianapolis Center
01:13PM 37.4442 -83.1378 141° Southeast 401 461 31,900 -1,020 Descending Indianapolis Center
01:14PM 37.3564 -83.0489 141° Southeast 404 465 31,000 -960 Descending Indianapolis Center
01:15PM 37.2694 -82.9606 141° Southeast 400 460 30,000 -960 Descending Indianapolis Center
01:16PM 37.1817 -82.8719 141° Southeast 401 461 29,100 -540 Descending Indianapolis Center
01:17PM 37.1050 -82.7947 141° Southeast 400 460 29,000 -60 Descending Atlanta Center
01:18PM 37.0186 -82.7053 140° Southeast 400 460 29,000  Level Atlanta Center
01:19PM 36.9322 -82.6183 141° Southeast 400 460 29,000  Level Atlanta Center
01:19PM 36.9203 -82.6086 147° Southeast 396 456 29,000  Level Indianapolis Center
01:20PM 36.8458 -82.5369 142° Southeast 400 460 29,000  Level Atlanta Center
01:21PM 36.7531 -82.4583 146° Southeast 400 460 29,000  Level Atlanta Center
01:22PM 36.6561 -82.3853 149° Southeast 408 470 29,000  Level Atlanta Center
01:23PM 36.5464 -82.3022 149° Southeast 431 496 29,000  Level Atlanta Center
01:24PM 36.4369 -82.2169 148° Southeast 454 522 29,000 -720 Level Atlanta Center
01:25PM 36.3250 -82.1317 148° Southeast 470 541 27,600 -1,800 Descending Atlanta Center
01:26PM 36.2322 -82.0594 148° Southeast 461 531 25,400 -2,280 Descending Atlanta Center
01:27PM 36.1203 -81.9747 149° Southeast 443 510 23,100 -2,280 Descending Atlanta Center
01:28PM 36.0250 -81.9025 148° Southeast 417 480 20,900 -2,160 Descending Atlanta Center
01:29PM 35.9406 -81.8381 148° Southeast 388 447 18,800 -1,800 Descending Atlanta Center
01:30PM 35.8558 -81.7764 149° Southeast 368 423 17,300 -1,800 Descending Atlanta Center
01:31PM 35.7797 -81.7197 149° Southeast 337 388 15,300 -1,920 Descending Atlanta Center
01:32PM 35.7056 -81.6631 148° Southeast 322 371 13,500 -1,860 Descending Atlanta Center
01:33PM 35.6761 -81.6383 146° Southeast 300 345 12,700 -1,440 Descending Atlanta Center
01:33PM 35.6358 -81.6086 149° Southeast 307 353 12,100 -480 Descending Atlanta Center
01:34PM 35.5739 -81.5442 140° Southeast 300 345 12,000 -60 Descending Atlanta Center
01:35PM 35.5222 -81.4617 128° Southeast 299 344 12,000  Level Atlanta Center
01:36PM 35.4683 -81.3792 129° Southeast 306 352 12,000  Level Atlanta Center
01:37PM 35.4144 -81.2967 129° Southeast 311 358 12,000  Level Atlanta Center
01:38PM 35.3583 -81.2147 130° Southeast 311 358 12,000 -1,020 Level Atlanta Center
01:39PM 35.2978 -81.1275 130° Southeast 302 348 9,900 -1,500 Descending Atlanta Center
01:40PM 35.2464 -81.0736 139° Southeast 294 338 9,000 -840 Descending Atlanta Center
01:40PM 35.2275 -81.0717 175° South 283 326 9,000 -1,140 Level Atlanta Center
01:41PM 35.1503 -81.0667 177° South 273 314 7,600 -1,440 Descending Atlanta Center
01:42PM 35.1022 -81.0608 174° South 275 316 6,500 -1,140 Descending Atlanta Center
01:43PM 34.9975 -81.0519 176° South 276 318 5,400 -660 Descending Atlanta Center
01:44PM 34.9203 -81.0444 175° South 256 295 5,000 -240 Descending Atlanta Center
01:45PM 34.8594 -81.0392 176° South 227 261 5,000  Level Atlanta Center
01:46PM 34.8292 -80.9922 128° Southeast 211 243 5,000  Level Atlanta Center
01:47PM 34.8614 -80.9481 48° Northeast 200 230 5,000  Level Atlanta Center
01:48PM 34.9156 -80.9433 North 191 220 5,000  Level Atlanta Center
01:49PM 34.9719 -80.9464 357° North 183 211 5,000 -360 Level Atlanta Center
01:51PM 35.0244 -80.9544 353° North 184 212 4,300 -840 Descending Atlanta Center
01:52PM 35.0703 -80.9553 359° North 182 209 3,300 -1,020 Descending Atlanta Center
01:53PM 35.1183 -80.9611 354° North 171 197 2,400 -900 Descending Atlanta Center
01:54PM 35.1603 -80.9647 356° North 145 167 1,600 -780 Descending Atlanta Center
01:55PM 35.1936 -80.9686 355° North 111 128 900 -720 Descending Atlanta Center
01:57PM 35.2000 -80.9333 39° Northeast  Level FlightAware Approximate